CZFA

Faro Airport

Faro, Yukon Territory, Canada
METAR CZFA 172200Z 29007KT 220V320 30SM BKN080 BKN091 10/M02 A2973 RMK AC6AC1 VIRGA CLIMAT 10.3/3.6/0.0 LAST STFD OBS/NEXT 181400UTC SLP093 DENSITY ALT 2600FT
Observed Flight Rules
Oct-17 @ 22:00 UTC (3 hours ago) Visual Flight Rules
Wind Visibility Clouds
290° at 7 knots 30 miles
  • Broken at 8,000' AGL
  • Broken at 9,100' AGL
Temperatures Readings
Current 10°C / 50°F
Dewpoint -2°C / 28°F
Humidity 43%
Altimeter 29.73" Hg
Pressure 1009.3 hPa
Elevation 717
METAR CZFA 172200Z 29007KT 220V320 30SM BKN080 BKN091 10/M02 A2973 RMK AC6AC1 VIRGA CLIMAT 10.3/3.6/0.0 LAST STFD OBS/NEXT 181400UTC SLP093 DENSITY ALT 2600FT
Observed Flight Rules
Oct-17 @ 22:00 UTC
(3 hours ago)
VFR
Wind Visibility
290° at 7 knots 30 miles
Clouds
  • Broken at 8,000' AGL
  • Broken at 9,100' AGL
Temperature Dewpoint
10°C / 50°F -2°C / 28°F
Humidity Altimeter Pressure
43% 29.73" Hg 1009.3 hPa